createdAt,value
2018-12-10T00:01:16.867Z,99688.45
2018-12-10T00:03:44.346Z,99681.67
2018-12-10T00:06:11.851Z,99694.36
2018-12-10T00:08:39.358Z,99688.81
2018-12-10T00:11:06.805Z,99704.42
2018-12-10T00:13:34.263Z,99706.13
2018-12-10T00:16:01.705Z,99706.56
2018-12-10T00:18:29.824Z,99697.73
2018-12-10T00:20:57.298Z,99709.58
2018-12-10T00:23:24.780Z,99716.75
2018-12-10T00:25:52.286Z,99718.86
2018-12-10T00:28:19.738Z,99718.42
2018-12-10T00:30:47.202Z,99727.30
2018-12-10T00:33:15.209Z,99724.37
2018-12-10T00:35:42.740Z,99719.73
2018-12-10T00:38:10.181Z,99727.78
2018-12-10T00:40:37.658Z,99724.41
2018-12-10T00:43:05.134Z,99743.45
2018-12-10T00:45:32.652Z,99745.58
2018-12-10T00:48:00.683Z,99759.53
2018-12-10T00:50:28.159Z,99764.17
2018-12-10T00:52:55.625Z,99768.45
2018-12-10T00:55:23.071Z,99769.72
2018-12-10T00:57:50.497Z,99770.98
2018-12-10T01:00:17.973Z,99778.59
2018-12-10T01:02:45.424Z,99778.20
2018-12-10T01:05:13.302Z,99781.20
2018-12-10T01:07:40.763Z,99789.64
2018-12-10T01:10:08.309Z,99787.14
2018-12-10T01:12:35.787Z,99795.98
2018-12-10T01:15:05.189Z,99790.94
2018-12-10T01:17:33.151Z,99799.42
2018-12-10T01:20:01.206Z,99796.47
2018-12-10T01:22:28.660Z,99803.25
2018-12-10T01:24:56.174Z,99815.92
2018-12-10T01:27:23.912Z,99808.31
2018-12-10T01:29:51.347Z,99822.27
2018-12-10T01:32:18.846Z,99826.06
2018-12-10T01:34:46.555Z,99826.06
2018-12-10T01:37:14.022Z,99829.47
2018-12-10T01:39:41.500Z,99828.17
2018-12-10T01:42:09.888Z,99832.41
2018-12-10T01:44:37.348Z,99834.92
2018-12-10T01:47:04.801Z,99842.96
2018-12-10T01:49:32.260Z,99839.56
2018-12-10T01:51:59.734Z,99845.49
2018-12-10T01:54:27.165Z,99842.12
2018-12-10T01:56:54.712Z,99855.66
2018-12-10T01:59:22.172Z,99856.50
2018-12-10T02:01:49.649Z,99857.33
2018-12-10T02:04:17.135Z,99861.58
2018-12-10T02:06:44.567Z,99868.75
2018-12-10T02:09:12.039Z,99866.22
2018-12-10T02:11:39.494Z,99862.84
2018-12-10T02:14:07.464Z,99873.80
2018-12-10T02:16:34.888Z,99878.89
2018-12-10T02:19:02.349Z,99879.33
2018-12-10T02:21:29.862Z,99867.05
2018-12-10T02:23:58.161Z,99882.70
2018-12-10T02:26:25.652Z,99884.40
2018-12-10T02:28:58.758Z,99884.83
2018-12-10T02:31:26.219Z,99897.50
2018-12-10T02:33:55.100Z,99893.70
2018-12-10T02:36:22.594Z,99894.97
2018-12-10T02:38:50.025Z,99896.23
2018-12-10T02:41:17.527Z,99900.47
2018-12-10T02:43:45.046Z,99907.64
2018-12-10T02:46:12.487Z,99899.63
2018-12-10T02:48:39.966Z,99906.38
2018-12-10T02:51:07.422Z,99908.92
2018-12-10T02:53:34.876Z,99892.44
2018-12-10T02:56:02.322Z,99903.85
2018-12-10T02:58:29.938Z,99909.35
2018-12-10T03:00:57.467Z,99916.14
2018-12-10T03:03:24.927Z,99918.67
2018-12-10T03:05:52.390Z,99918.69
2018-12-10T03:08:19.867Z,99916.13
2018-12-10T03:10:47.333Z,99918.69
2018-12-10T03:13:14.778Z,99922.92
2018-12-10T03:15:42.819Z,99925.86
2018-12-10T03:18:10.288Z,99935.59
2018-12-10T03:20:38.730Z,99934.73
2018-12-10T03:23:06.269Z,99944.02
2018-12-10T03:25:33.850Z,99938.95
2018-12-10T03:28:01.309Z,99941.48
2018-12-10T03:30:28.791Z,99948.27
2018-12-10T03:32:56.355Z,99950.38
2018-12-10T03:35:24.267Z,99941.09
2018-12-10T03:37:51.877Z,99954.60
2018-12-10T03:40:19.357Z,99952.48
2018-12-10T03:42:46.809Z,99961.78
2018-12-10T03:45:14.313Z,99960.95
2018-12-10T03:47:42.713Z,99979.12
2018-12-10T03:50:10.212Z,99977.42
2018-12-10T03:52:37.654Z,99974.02
2018-12-10T03:55:05.286Z,99971.50
2018-12-10T03:57:32.807Z,99985.42
2018-12-10T04:00:00.288Z,99985.86
2018-12-10T04:02:27.845Z,99986.28
2018-12-10T04:04:55.360Z,99993.03
2018-12-10T04:07:22.813Z,99996.42
2018-12-10T04:09:50.277Z,100001.48
2018-12-10T04:12:18.341Z,100009.10
2018-12-10T04:14:45.790Z,100001.49
2018-12-10T04:17:13.242Z,99997.70
2018-12-10T04:19:40.732Z,100009.95
2018-12-10T04:22:08.546Z,100003.20
2018-12-10T04:24:36.034Z,100019.25
2018-12-10T04:27:03.538Z,100012.91
2018-12-10T04:29:30.970Z,100016.28
2018-12-10T04:31:58.452Z,100017.97
2018-12-10T04:34:25.932Z,100023.87
2018-12-10T04:36:53.401Z,100019.67
2018-12-10T04:39:20.868Z,100017.56
2018-12-10T04:41:48.388Z,100024.73
2018-12-10T04:44:16.293Z,100025.17
2018-12-10T04:46:43.928Z,100035.30
2018-12-10T04:49:11.470Z,100036.13
2018-12-10T04:51:38.941Z,100046.67
2018-12-10T04:54:06.421Z,100052.58
2018-12-10T04:56:33.891Z,100056.82
2018-12-10T04:59:01.370Z,100053.03
2018-12-10T05:01:28.840Z,100051.31
2018-12-10T05:03:56.346Z,100062.30
2018-12-10T05:06:23.915Z,100051.33
2018-12-10T05:08:51.388Z,100054.27
2018-12-10T05:11:18.833Z,100061.86
2018-12-10T05:13:46.366Z,100065.68
2018-12-10T05:16:13.843Z,100068.63
2018-12-10T05:18:41.331Z,100049.19
2018-12-10T05:21:08.793Z,100063.14
2018-12-10T05:23:36.858Z,100062.28
2018-12-10T05:26:04.327Z,100066.50
2018-12-10T05:28:32.317Z,100068.64
2018-12-10T05:30:59.771Z,100071.16
2018-12-10T05:33:27.289Z,100066.09
2018-12-10T05:35:54.752Z,100072.03
2018-12-10T05:38:22.212Z,100068.23
2018-12-10T05:40:49.726Z,100075.84
2018-12-10T05:43:17.201Z,100073.30
2018-12-10T05:45:44.680Z,100080.48
2018-12-10T05:48:12.135Z,100085.14
2018-12-10T05:50:39.847Z,100094.41
2018-12-10T05:53:07.299Z,100090.63
2018-12-10T05:55:34.733Z,100104.97
2018-12-10T05:58:02.195Z,100105.37
2018-12-10T06:00:29.686Z,100107.08
2018-12-10T06:02:57.126Z,100107.08
2018-12-10T06:05:24.600Z,100116.38
2018-12-10T06:07:52.110Z,100118.52
2018-12-10T06:10:20.316Z,100118.05
2018-12-10T06:12:47.775Z,100125.66
2018-12-10T06:15:15.222Z,100129.88
2018-12-10T06:17:42.675Z,100128.17
2018-12-10T06:20:11.117Z,100134.92
2018-12-10T06:22:38.590Z,100137.03
2018-12-10T06:25:06.684Z,100135.34
2018-12-10T06:27:34.157Z,100140.83
2018-12-10T06:30:01.599Z,100148.41
2018-12-10T06:32:29.067Z,100155.17
2018-12-10T06:34:56.531Z,100149.67
2018-12-10T06:37:24.057Z,100145.44
2018-12-10T06:39:51.545Z,100145.84
2018-12-10T06:42:19.002Z,100145.01
2018-12-10T06:44:46.495Z,100154.73
2018-12-10T06:47:13.944Z,100158.08
2018-12-10T06:49:41.419Z,100161.87
2018-12-10T06:52:08.869Z,100167.78
2018-12-10T06:54:36.339Z,100169.89
2018-12-10T06:57:03.904Z,100168.20
2018-12-10T06:59:31.437Z,100182.98
2018-12-10T07:01:58.996Z,100189.75
2018-12-10T07:04:26.501Z,100181.72
2018-12-10T07:06:53.957Z,100182.56
2018-12-10T07:09:21.422Z,100182.11
2018-12-10T07:11:48.905Z,100190.97
2018-12-10T07:14:16.351Z,100190.09
2018-12-10T07:16:43.828Z,100197.28
2018-12-10T07:19:11.416Z,100203.21
2018-12-10T07:21:38.903Z,100199.41
2018-12-10T07:24:06.415Z,100203.20
2018-12-10T07:26:33.872Z,100201.08
2018-12-10T07:29:01.443Z,100204.02
2018-12-10T07:31:28.931Z,100209.50
2018-12-10T07:33:56.402Z,100208.65
2018-12-10T07:36:23.924Z,100217.06
2018-12-10T07:38:51.408Z,100214.09
2018-12-10T07:41:18.903Z,100219.57
2018-12-10T07:43:46.356Z,100225.91
2018-12-10T07:46:13.796Z,100223.80
2018-12-10T07:48:41.233Z,100233.95
2018-12-10T07:51:08.734Z,100232.26
2018-12-10T07:53:36.228Z,100228.92
2018-12-10T07:56:03.831Z,100220.06
2018-12-10T07:58:31.314Z,100226.00
2018-12-10T08:00:58.808Z,100236.97
2018-12-10T08:03:26.283Z,100237.87
2018-12-10T08:05:53.760Z,100242.15
2018-12-10T08:08:21.214Z,100244.69
2018-12-10T08:10:48.668Z,100245.54
2018-12-10T08:13:16.228Z,100247.64
2018-12-10T08:15:43.698Z,100247.63
2018-12-10T08:18:11.175Z,100252.23
2018-12-10T08:20:38.672Z,100253.06
2018-12-10T08:23:06.181Z,100260.22
2018-12-10T08:25:33.658Z,100256.86
2018-12-10T08:28:01.136Z,100260.69
2018-12-10T08:30:28.670Z,100261.56
2018-12-10T08:32:56.106Z,100253.14
2018-12-10T08:35:23.697Z,100263.31
2018-12-10T08:37:51.164Z,100269.98
2018-12-10T08:40:18.709Z,100280.19
2018-12-10T08:42:46.286Z,100278.23
2018-12-10T08:45:13.826Z,100285.86
2018-12-10T08:47:41.327Z,100285.89
2018-12-10T08:50:09.385Z,100285.11
2018-12-10T08:52:36.923Z,100292.73
2018-12-10T08:55:04.586Z,100283.83
2018-12-10T08:57:32.051Z,100299.84
2018-12-10T08:59:59.536Z,100288.40
2018-12-10T09:02:27.056Z,100298.09
2018-12-10T09:04:54.919Z,100296.83
2018-12-10T09:07:22.374Z,100294.00
2018-12-10T09:09:49.836Z,100298.73
2018-12-10T09:12:17.290Z,100300.83
2018-12-10T09:14:44.742Z,100293.63
2018-12-10T09:17:12.208Z,100299.48
2018-12-10T09:19:39.662Z,100298.18
2018-12-10T09:22:07.148Z,100302.34
2018-12-10T09:24:34.600Z,100300.23
2018-12-10T09:27:02.128Z,100310.74
2018-12-10T09:29:29.716Z,100313.30
2018-12-10T09:31:57.320Z,100318.03
2018-12-10T09:34:24.763Z,100318.11
2018-12-10T09:36:52.208Z,100315.07
2018-12-10T09:39:19.680Z,100310.86
2018-12-10T09:41:47.761Z,100309.16
2018-12-10T09:44:15.319Z,100312.98
2018-12-10T09:46:42.810Z,100302.92
2018-12-10T09:49:10.396Z,100299.15
2018-12-10T09:51:37.861Z,100309.29
2018-12-10T09:54:05.314Z,100304.22
2018-12-10T09:56:32.778Z,100299.96
2018-12-10T09:59:00.221Z,100305.91
2018-12-10T10:01:27.669Z,100311.37
2018-12-10T10:03:55.132Z,100308.36
2018-12-10T10:06:22.682Z,100308.00
2018-12-10T10:08:50.449Z,100313.47
2018-12-10T10:11:17.987Z,100308.38
2018-12-10T10:13:45.450Z,100303.33
2018-12-10T10:16:13.698Z,100321.07
2018-12-10T10:18:41.170Z,100321.46
2018-12-10T10:21:11.376Z,100329.09
2018-12-10T10:23:38.115Z,100327.39
2018-12-10T10:26:05.685Z,100325.31
2018-12-10T10:28:33.199Z,100325.75
2018-12-10T10:31:00.856Z,100327.39
2018-12-10T10:33:32.254Z,100319.83
2018-12-10T10:35:57.791Z,100311.80
2018-12-10T10:38:25.659Z,100310.95
2018-12-10T10:40:53.121Z,100304.59
2018-12-10T10:43:20.576Z,100302.48
2018-12-10T10:45:48.029Z,100307.58
2018-12-10T10:48:15.471Z,100305.44
2018-12-10T10:50:42.942Z,100308.36
2018-12-10T10:53:10.507Z,100306.68
2018-12-10T10:55:37.977Z,100303.74
2018-12-10T10:58:05.513Z,100300.77
2018-12-10T11:00:38.640Z,100297.42
2018-12-10T11:03:08.097Z,100305.88
2018-12-10T11:05:35.589Z,100313.04
2018-12-10T11:08:03.057Z,100311.36
2018-12-10T11:10:30.529Z,100299.09
2018-12-10T11:12:58.018Z,100306.33
2018-12-10T11:15:25.511Z,100299.13
2018-12-10T11:17:53.048Z,100297.45
2018-12-10T11:20:20.507Z,100297.83
2018-12-10T11:22:47.985Z,100293.63
2018-12-10T11:25:15.923Z,100295.31
2018-12-10T11:27:43.378Z,100301.65
2018-12-10T11:30:11.100Z,100302.92
2018-12-10T11:32:38.632Z,100294.87
2018-12-10T11:35:06.193Z,100287.67
2018-12-10T11:37:33.743Z,100285.13
2018-12-10T11:40:01.200Z,100286.84
2018-12-10T11:42:28.711Z,100289.79
2018-12-10T11:44:56.159Z,100289.80
2018-12-10T11:47:23.604Z,100291.46
2018-12-10T11:49:51.129Z,100295.27
2018-12-10T11:52:18.612Z,100295.70
2018-12-10T11:54:46.149Z,100300.38
2018-12-10T11:57:13.757Z,100291.91
2018-12-10T11:59:41.339Z,100290.64
2018-12-10T12:02:08.816Z,100275.42
2018-12-10T12:04:36.262Z,100282.20
2018-12-10T12:07:03.856Z,100273.33
2018-12-10T12:09:31.455Z,100292.36
2018-12-10T12:11:58.972Z,100290.64
2018-12-10T12:14:26.656Z,100295.29
2018-12-10T12:16:54.180Z,100296.56
2018-12-10T12:19:21.627Z,100298.27
2018-12-10T12:21:49.075Z,100303.77
2018-12-10T12:24:16.543Z,100289.75
2018-12-10T12:26:45.616Z,100293.98
2018-12-10T12:29:13.467Z,100282.13
2018-12-10T12:31:41.001Z,100290.59
2018-12-10T12:34:08.449Z,100286.79
2018-12-10T12:36:35.903Z,100281.72
2018-12-10T12:39:05.236Z,100278.77
2018-12-10T12:41:32.763Z,100294.40
2018-12-10T12:44:00.217Z,100301.98
2018-12-10T12:46:27.685Z,100296.06
2018-12-10T12:48:55.121Z,100295.22
2018-12-10T12:51:22.695Z,100308.34
2018-12-10T12:53:50.148Z,100297.36
2018-12-10T12:56:17.596Z,100291.02
2018-12-10T12:58:45.119Z,100294.83
2018-12-10T13:01:12.597Z,100270.73
2018-12-10T13:03:40.160Z,100288.92
2018-12-10T13:06:07.732Z,100281.75
2018-12-10T13:08:35.296Z,100282.16
2018-12-10T13:11:02.752Z,100275.41
2018-12-10T13:13:30.247Z,100273.70
2018-12-10T13:15:57.765Z,100279.17
2018-12-10T13:18:25.228Z,100282.56
2018-12-10T13:20:52.708Z,100290.55
2018-12-10T13:23:20.164Z,100286.77
2018-12-10T13:25:47.621Z,100286.33
2018-12-10T13:28:15.073Z,100286.33
2018-12-10T13:30:42.561Z,100281.25
2018-12-10T13:33:10.038Z,100282.52
2018-12-10T13:35:37.581Z,100271.94
2018-12-10T13:38:07.760Z,100272.81
2018-12-10T13:40:34.497Z,100288.05
2018-12-10T13:43:01.972Z,100278.77
2018-12-10T13:45:31.184Z,100273.70
2018-12-10T13:47:58.914Z,100282.98
2018-12-10T13:50:26.358Z,100281.72
2018-12-10T13:52:53.814Z,100285.13
2018-12-10T13:55:21.322Z,100291.46
2018-12-10T13:57:48.757Z,100290.19
2018-12-10T14:00:16.287Z,100288.06
2018-12-10T14:02:43.750Z,100284.28
2018-12-10T14:05:11.717Z,100293.55
2018-12-10T14:07:39.184Z,100290.18
2018-12-10T14:10:07.316Z,100293.55
2018-12-10T14:12:34.787Z,100294.81
2018-12-10T14:15:02.282Z,100295.67
2018-12-10T14:17:29.721Z,100296.09
2018-12-10T14:19:57.227Z,100286.38
2018-12-10T14:22:24.692Z,100298.22
2018-12-10T14:24:52.144Z,100295.69
2018-12-10T14:27:19.708Z,100283.42
2018-12-10T14:29:47.236Z,100288.91
2018-12-10T14:32:14.779Z,100295.22
2018-12-10T14:34:42.287Z,100299.00
2018-12-10T14:37:09.766Z,100310.00
2018-12-10T14:39:37.303Z,100305.34
2018-12-10T14:42:08.156Z,100307.00
2018-12-10T14:44:35.666Z,100295.19
2018-12-10T14:47:03.212Z,100294.75
2018-12-10T14:49:30.662Z,100302.34
2018-12-10T14:51:58.117Z,100296.86
2018-12-10T14:54:26.256Z,100289.65
2018-12-10T14:56:53.714Z,100293.88
2018-12-10T14:59:21.154Z,100294.30
2018-12-10T15:01:48.651Z,100296.84
2018-12-10T15:04:16.143Z,100302.34
2018-12-10T15:06:43.613Z,100298.09
2018-12-10T15:09:11.184Z,100284.99
2018-12-10T15:11:38.652Z,100283.73
2018-12-10T15:14:06.117Z,100279.91
2018-12-10T15:16:33.894Z,100288.37
2018-12-10T15:19:01.367Z,100290.47
2018-12-10T15:21:28.834Z,100291.77
2018-12-10T15:23:56.272Z,100288.80
2018-12-10T15:26:23.803Z,100282.45
2018-12-10T15:28:51.248Z,100291.34
2018-12-10T15:31:18.776Z,100287.53
2018-12-10T15:33:46.250Z,100285.39
2018-12-10T15:36:13.727Z,100285.80
2018-12-10T15:38:41.185Z,100281.59
2018-12-10T15:41:08.652Z,100282.41
2018-12-10T15:43:36.114Z,100288.75
2018-12-10T15:46:03.570Z,100287.92
2018-12-10T15:48:31.108Z,100281.18
2018-12-10T15:50:58.684Z,100298.92
2018-12-10T15:53:26.160Z,100306.11
2018-12-10T15:55:53.623Z,100301.44
2018-12-10T15:58:21.088Z,100319.19
2018-12-10T16:00:48.659Z,100301.82
2018-12-10T16:03:16.143Z,100309.41
2018-12-10T16:05:43.654Z,100308.95
2018-12-10T16:08:11.152Z,100305.51
2018-12-10T16:10:38.616Z,100305.81
2018-12-10T16:13:06.071Z,100307.00
2018-12-10T16:15:33.589Z,100311.06
2018-12-10T16:18:01.031Z,100314.77
2018-12-10T16:20:28.503Z,100319.36
2018-12-10T16:22:56.006Z,100313.30
2018-12-10T16:25:23.484Z,100313.70
2018-12-10T16:27:50.980Z,100320.41
2018-12-10T16:30:19.415Z,100315.70
2018-12-10T16:32:46.896Z,100318.22
2018-12-10T16:35:14.355Z,100324.00
2018-12-10T16:37:41.834Z,100325.78
2018-12-10T16:40:09.369Z,100319.00
2018-12-10T16:42:36.854Z,100319.40
2018-12-10T16:45:06.141Z,100317.33
2018-12-10T16:47:33.590Z,100309.27
2018-12-10T16:50:01.095Z,100308.81
2018-12-10T16:52:28.620Z,100304.97
2018-12-10T16:54:56.558Z,100314.22
2018-12-10T16:57:24.097Z,100306.70
2018-12-10T16:59:51.565Z,100308.83
2018-12-10T17:02:19.047Z,100312.73
2018-12-10T17:04:46.546Z,100323.36
2018-12-10T17:07:14.065Z,100320.08
2018-12-10T17:09:41.880Z,100313.82
2018-12-10T17:12:09.467Z,100320.23
2018-12-10T17:14:37.025Z,100310.95
2018-12-10T17:17:04.499Z,100307.20
2018-12-10T17:19:32.000Z,100313.97
2018-12-10T17:21:59.488Z,100319.05
2018-12-10T17:24:26.957Z,100318.19
2018-12-10T17:26:54.488Z,100316.09
2018-12-10T17:29:22.001Z,100317.77
2018-12-10T17:31:49.462Z,100318.22
2018-12-10T17:34:17.678Z,100312.32
2018-12-10T17:36:45.160Z,100317.80
2018-12-10T17:39:12.613Z,100314.41
2018-12-10T17:41:40.075Z,100311.87
2018-12-10T17:44:08.589Z,100310.63
2018-12-10T17:46:36.103Z,100313.14
2018-12-10T17:49:03.780Z,100325.39
2018-12-10T17:51:31.353Z,100331.75
2018-12-10T17:53:58.965Z,100319.09
2018-12-10T17:56:26.528Z,100321.20
2018-12-10T17:58:54.052Z,100315.30
2018-12-10T18:01:21.556Z,100321.20
2018-12-10T18:03:49.672Z,100332.57
2018-12-10T18:06:17.136Z,100333.73
2018-12-10T18:08:44.696Z,100333.72
2018-12-10T18:11:12.205Z,100340.85
2018-12-10T18:13:39.707Z,100324.77
2018-12-10T18:16:07.211Z,100329.38
2018-12-10T18:18:34.695Z,100324.36
2018-12-10T18:21:02.208Z,100321.83
2018-12-10T18:23:29.678Z,100316.75
2018-12-10T18:25:57.258Z,100316.75
2018-12-10T18:28:24.747Z,100301.95
2018-12-10T18:30:52.449Z,100312.08
2018-12-10T18:33:19.914Z,100313.77
2018-12-10T18:35:49.076Z,100317.16
2018-12-10T18:38:16.635Z,100315.07
2018-12-10T18:40:44.097Z,100311.30
2018-12-10T18:43:11.589Z,100304.14
2018-12-10T18:45:39.099Z,100310.97
2018-12-10T18:48:06.622Z,100325.31
2018-12-10T18:50:34.143Z,100331.64
2018-12-10T18:53:01.614Z,100327.01
2018-12-10T18:55:29.085Z,100320.22
2018-12-10T18:57:56.664Z,100327.81
2018-12-10T19:00:24.176Z,100325.73
2018-12-10T19:02:51.627Z,100316.87
2018-12-10T19:05:21.234Z,100325.28
2018-12-10T19:07:48.703Z,100322.37
2018-12-10T19:10:16.189Z,100332.52
2018-12-10T19:12:44.174Z,100333.36
2018-12-10T19:15:11.776Z,100328.73
2018-12-10T19:17:39.319Z,100325.36
2018-12-10T19:20:07.306Z,100328.73
2018-12-10T19:22:34.801Z,100316.48
2018-12-10T19:25:02.287Z,100314.42
2018-12-10T19:27:29.769Z,100317.74
2018-12-10T19:29:57.219Z,100325.74
2018-12-10T19:32:25.115Z,100330.39
2018-12-10T19:34:52.564Z,100318.55
2018-12-10T19:37:20.112Z,100332.88
2018-12-10T19:39:47.557Z,100326.55
2018-12-10T19:42:15.545Z,100316.42
2018-12-10T19:44:43.012Z,100331.13
2018-12-10T19:47:10.487Z,100334.48
2018-12-10T19:49:37.997Z,100331.15
2018-12-10T19:52:05.559Z,100327.35
2018-12-10T19:54:33.297Z,100318.50
2018-12-10T19:57:00.793Z,100329.89
2018-12-10T19:59:28.272Z,100323.95
2018-12-10T20:01:55.729Z,100319.30
2018-12-10T20:04:23.319Z,100323.56
2018-12-10T20:06:56.463Z,100325.25
2018-12-10T20:09:23.965Z,100320.23
2018-12-10T20:11:51.529Z,100321.07
2018-12-10T20:14:19.334Z,100317.28
2018-12-10T20:16:47.480Z,100329.10
2018-12-10T20:19:14.998Z,100324.82
2018-12-10T20:21:42.514Z,100322.27
2018-12-10T20:24:09.967Z,100320.48
2018-12-10T20:26:37.499Z,100313.30
2018-12-10T20:29:05.480Z,100329.80
2018-12-10T20:31:32.963Z,100326.02
2018-12-10T20:34:00.462Z,100318.42
2018-12-10T20:36:29.471Z,100312.55
2018-12-10T20:38:57.266Z,100315.98
2018-12-10T20:41:25.274Z,100315.16
2018-12-10T20:43:53.073Z,100321.56
2018-12-10T20:46:20.553Z,100318.66
2018-12-10T20:48:48.659Z,100319.08
2018-12-10T20:51:16.129Z,100330.55
2018-12-10T20:53:43.712Z,100332.65
2018-12-10T20:56:11.269Z,100328.48
2018-12-10T20:58:39.281Z,100326.36
2018-12-10T21:01:06.807Z,100334.38
2018-12-10T21:03:34.412Z,100336.48
2018-12-10T21:06:07.353Z,100327.63
2018-12-10T21:08:36.051Z,100331.81
2018-12-10T21:11:03.580Z,100327.18
2018-12-10T21:13:32.109Z,100324.67
2018-12-10T21:15:59.559Z,100327.64
2018-12-10T21:18:27.027Z,100329.35
2018-12-10T21:20:55.048Z,100323.44
2018-12-10T21:23:22.503Z,100332.31
2018-12-10T21:25:49.963Z,100335.69
2018-12-10T21:28:17.493Z,100348.80
2018-12-10T21:30:44.977Z,100344.94
2018-12-10T21:33:12.455Z,100353.84
2018-12-10T21:35:39.954Z,100354.22
2018-12-10T21:38:07.405Z,100354.22
2018-12-10T21:40:34.871Z,100357.59
2018-12-10T21:43:02.884Z,100351.68
2018-12-10T21:45:30.860Z,100354.21
2018-12-10T21:47:58.699Z,100368.09
2018-12-10T21:50:26.780Z,100367.64
2018-12-10T21:52:54.253Z,100357.52
2018-12-10T21:55:22.607Z,100356.69
2018-12-10T21:57:50.172Z,100350.77
2018-12-10T22:00:18.322Z,100356.71
2018-12-10T22:02:45.788Z,100354.98
2018-12-10T22:05:13.370Z,100352.45
2018-12-10T22:07:40.884Z,100363.03
2018-12-10T22:10:08.504Z,100365.97
2018-12-10T22:12:36.049Z,100370.62
2018-12-10T22:15:04.319Z,100356.31
2018-12-10T22:17:32.216Z,100363.47
2018-12-10T22:19:59.683Z,100361.81
2018-12-10T22:22:27.147Z,100371.95
2018-12-10T22:24:54.673Z,100373.64
2018-12-10T22:27:22.251Z,100365.20
2018-12-10T22:29:49.780Z,100380.39
2018-12-10T22:32:17.275Z,100380.35
2018-12-10T22:34:45.636Z,100376.14
2018-12-10T22:37:13.272Z,100389.62
2018-12-10T22:39:40.761Z,100387.09
2018-12-10T22:42:08.537Z,100388.29
2018-12-10T22:44:35.977Z,100387.45
2018-12-10T22:47:03.553Z,100384.47
2018-12-10T22:49:31.001Z,100381.91
2018-12-10T22:51:58.465Z,100382.67
2018-12-10T22:54:25.943Z,100385.20
2018-12-10T22:56:53.740Z,100381.41
2018-12-10T22:59:21.193Z,100386.89
2018-12-10T23:01:48.650Z,100388.60
2018-12-10T23:04:16.963Z,100393.28
2018-12-10T23:06:44.485Z,100389.06
2018-12-10T23:09:11.959Z,100382.73
2018-12-10T23:11:39.409Z,100383.60
2018-12-10T23:14:06.943Z,100385.28
2018-12-10T23:16:34.404Z,100382.77
2018-12-10T23:19:01.917Z,100378.55
2018-12-10T23:21:29.383Z,100374.38
2018-12-10T23:23:56.866Z,100382.36
2018-12-10T23:26:24.477Z,100381.95
2018-12-10T23:28:51.940Z,100389.55
2018-12-10T23:31:19.383Z,100384.08
2018-12-10T23:33:46.905Z,100380.70
2018-12-10T23:36:15.101Z,100394.22
2018-12-10T23:38:42.611Z,100398.47
2018-12-10T23:41:10.076Z,100401.41
2018-12-10T23:43:37.525Z,100388.36
2018-12-10T23:46:05.003Z,100390.89
2018-12-10T23:48:32.496Z,100386.63
2018-12-10T23:50:59.994Z,100394.64
2018-12-10T23:53:27.943Z,100397.59
2018-12-10T23:55:55.566Z,100394.67
2018-12-10T23:58:23.013Z,100390.84
